createdAt,value
2018-04-07T00:00:28.137Z,10.37
2018-04-07T00:02:55.577Z,11.50
2018-04-07T00:05:23.025Z,10.23
2018-04-07T00:07:50.466Z,11.10
2018-04-07T00:10:17.907Z,11.10
2018-04-07T00:12:45.349Z,11.37
2018-04-07T00:15:12.799Z,11.20
2018-04-07T00:17:40.245Z,11.87
2018-04-07T00:20:07.687Z,10.47
2018-04-07T00:22:35.909Z,11.10
2018-04-07T00:25:03.342Z,10.40
2018-04-07T00:27:31.494Z,10.53
2018-04-07T00:29:58.923Z,11.30
2018-04-07T00:32:26.365Z,10.73
2018-04-07T00:34:53.801Z,11.60
2018-04-07T00:37:21.246Z,10.80
2018-04-07T00:39:48.686Z,11.70
2018-04-07T00:42:16.125Z,10.40
2018-04-07T00:44:43.553Z,11.80
2018-04-07T00:47:11.006Z,11.60
2018-04-07T00:49:38.446Z,10.40
2018-04-07T00:52:05.903Z,9.87
2018-04-07T00:54:33.337Z,11.10
2018-04-07T00:57:00.775Z,10.50
2018-04-07T00:59:28.209Z,10.73
2018-04-07T01:01:56.405Z,9.70
2018-04-07T01:04:23.842Z,9.90
2018-04-07T01:06:52.054Z,9.70
2018-04-07T01:09:19.494Z,11.30
2018-04-07T01:11:46.929Z,10.20
2018-04-07T01:14:15.145Z,11.27
2018-04-07T01:16:42.569Z,9.83
2018-04-07T01:48:56.327Z,10.47
2018-04-07T01:51:23.757Z,9.70
2018-04-07T01:53:51.966Z,10.00
2018-04-07T01:56:19.399Z,10.30
2018-04-07T01:58:47.601Z,10.17
2018-04-07T02:01:15.038Z,10.07
2018-04-07T02:03:42.486Z,11.00
2018-04-07T02:06:09.924Z,11.80
2018-04-07T02:08:38.122Z,9.30
2018-04-07T02:11:05.558Z,11.00
2018-04-07T02:13:33.762Z,9.67
2018-04-07T02:16:01.193Z,10.13
2018-04-07T02:18:29.398Z,10.83
2018-04-07T02:20:56.830Z,11.30
2018-04-07T02:23:24.274Z,11.80
2018-04-07T02:25:52.475Z,10.33
2018-04-07T02:28:19.919Z,11.90
2018-04-07T02:30:47.354Z,10.27
2018-04-07T02:33:14.782Z,11.20
2018-04-07T02:35:42.222Z,12.70
2018-04-07T02:38:09.658Z,11.27
2018-04-07T02:40:37.151Z,10.37
2018-04-07T02:43:04.546Z,10.97
2018-04-07T02:45:32.762Z,10.63
2018-04-07T02:48:00.205Z,10.40
2018-04-07T02:50:27.655Z,10.60
2018-04-07T02:52:55.078Z,10.90
2018-04-07T02:55:22.518Z,12.57
2018-04-07T02:57:49.942Z,9.93
2018-04-07T03:00:17.435Z,10.53
2018-04-07T03:02:44.862Z,10.00
2018-04-07T03:05:12.306Z,10.80
2018-04-07T03:07:39.742Z,11.20
2018-04-07T03:10:07.183Z,10.77
2018-04-07T03:12:35.394Z,11.40
2018-04-07T03:15:02.826Z,10.50
2018-04-07T03:17:30.254Z,11.53
2018-04-07T03:19:57.698Z,10.83
2018-04-07T03:22:25.129Z,10.83
2018-04-07T03:24:52.577Z,10.40
2018-04-07T03:27:20.009Z,9.73
2018-04-07T03:29:47.450Z,10.00
2018-04-07T03:32:15.649Z,10.80
2018-04-07T03:34:43.084Z,10.87
2018-04-07T03:37:10.514Z,10.90
2018-04-07T03:39:37.954Z,10.53
2018-04-07T03:42:05.398Z,10.50
2018-04-07T03:44:32.838Z,12.17
2018-04-07T03:47:00.284Z,10.43
2018-04-07T03:49:27.722Z,11.40
2018-04-07T03:51:55.924Z,10.27
2018-04-07T03:54:23.354Z,11.00
2018-04-07T03:56:50.794Z,10.57
2018-04-07T03:59:19.004Z,13.33
2018-04-07T04:01:46.442Z,12.03
2018-04-07T04:04:13.885Z,11.90
2018-04-07T04:06:42.096Z,11.77
2018-04-07T04:09:09.521Z,12.20
2018-04-07T04:11:36.960Z,10.93
2018-04-07T04:14:05.157Z,12.17
2018-04-07T04:16:32.597Z,12.03
2018-04-07T04:19:00.798Z,11.73
2018-04-07T04:21:28.238Z,12.00
2018-04-07T04:23:55.678Z,10.63
2018-04-07T04:26:23.916Z,11.80
2018-04-07T04:28:52.118Z,12.53
2018-04-07T04:31:19.558Z,12.67
2018-04-07T04:33:46.999Z,12.57
2018-04-07T04:36:14.448Z,12.30
2018-04-07T04:38:41.881Z,13.87
2018-04-07T04:41:09.321Z,13.10
2018-04-07T04:43:37.518Z,14.00
2018-04-07T04:46:04.959Z,14.70
2018-04-07T04:48:32.401Z,14.53
2018-04-07T04:51:00.597Z,13.70
2018-04-07T04:53:28.035Z,14.30
2018-04-07T04:55:56.237Z,16.83
2018-04-07T04:58:23.674Z,16.70
2018-04-07T05:00:51.105Z,16.07
2018-04-07T05:03:19.325Z,16.50
2018-04-07T05:05:46.758Z,14.67
2018-04-07T05:08:14.199Z,15.27
2018-04-07T05:10:42.390Z,16.30
2018-04-07T05:13:09.834Z,15.83
2018-04-07T05:15:38.035Z,15.10
2018-04-07T05:18:05.469Z,15.07
2018-04-07T05:20:32.909Z,15.07
2018-04-07T05:23:00.346Z,16.37
2018-04-07T05:25:27.791Z,15.63
2018-04-07T05:27:55.225Z,15.67
2018-04-07T05:30:22.662Z,15.03
2018-04-07T05:32:50.097Z,13.13
2018-04-07T05:35:18.302Z,15.03
2018-04-07T05:37:45.747Z,14.40
2018-04-07T05:40:13.178Z,14.43
2018-04-07T05:42:41.384Z,13.67
2018-04-07T05:45:08.814Z,14.70
2018-04-07T05:47:37.017Z,14.43
2018-04-07T05:50:04.458Z,15.30
2018-04-07T05:52:31.906Z,14.93
2018-04-07T05:55:00.103Z,13.43
2018-04-07T05:57:27.542Z,16.20
2018-04-07T05:59:54.980Z,14.40
2018-04-07T06:02:23.177Z,15.73
2018-04-07T06:04:50.609Z,14.70
2018-04-07T06:07:18.815Z,16.97
2018-04-07T06:09:46.262Z,16.37
2018-04-07T06:12:13.704Z,16.67
2018-04-07T06:14:41.898Z,16.40
2018-04-07T06:17:09.334Z,16.77
2018-04-07T06:19:37.549Z,17.50
2018-04-07T06:22:05.014Z,15.57
2018-04-07T06:24:32.459Z,15.00
2018-04-07T06:26:59.895Z,16.50
2018-04-07T06:29:27.331Z,17.17
2018-04-07T06:31:55.546Z,15.97
2018-04-07T06:34:22.981Z,15.97
2018-04-07T06:36:50.431Z,16.97
2018-04-07T06:39:17.884Z,16.60
2018-04-07T06:41:46.078Z,16.53
2018-04-07T06:44:13.518Z,16.27
2018-04-07T06:46:40.962Z,16.20
2018-04-07T06:49:09.582Z,17.80
2018-04-07T06:51:37.019Z,16.20
2018-04-07T06:54:04.456Z,18.17
2018-04-07T06:56:32.663Z,17.40
2018-04-07T06:59:00.110Z,18.13
2018-04-07T07:01:27.547Z,18.80
2018-04-07T07:03:55.000Z,16.33
2018-04-07T07:06:23.202Z,17.13
2018-04-07T07:08:50.681Z,16.30
2018-04-07T07:11:18.116Z,17.73
2018-04-07T07:13:45.550Z,17.37
2018-04-07T07:16:12.998Z,17.47
2018-04-07T07:18:41.200Z,17.97
2018-04-07T07:21:08.651Z,18.07
2018-04-07T07:23:36.094Z,17.00
2018-04-07T07:26:03.546Z,17.57
2018-04-07T07:28:30.994Z,17.70
2018-04-07T07:30:59.218Z,17.53
2018-04-07T07:33:26.667Z,16.90
2018-04-07T07:35:54.108Z,17.13
2018-04-07T07:38:21.562Z,18.30
2018-04-07T07:40:49.017Z,18.10
2018-04-07T07:43:16.449Z,16.27
2018-04-07T07:45:44.672Z,17.70
2018-04-07T07:48:12.122Z,16.30
2018-04-07T07:50:39.570Z,18.13
2018-04-07T07:53:07.013Z,16.90
2018-04-07T07:55:34.461Z,17.57
2018-04-07T07:58:01.909Z,17.90
2018-04-07T08:00:30.124Z,17.00
2018-04-07T08:02:57.563Z,17.47
2018-04-07T08:05:25.044Z,18.40
2018-04-07T08:07:52.455Z,15.63
2018-04-07T08:10:19.919Z,16.67
2018-04-07T08:12:47.419Z,16.67
2018-04-07T08:15:14.874Z,17.07
2018-04-07T08:17:42.305Z,18.33
2018-04-07T08:20:09.754Z,18.20
2018-04-07T08:22:37.194Z,16.77
2018-04-07T08:25:04.641Z,17.63
2018-04-07T08:27:32.859Z,16.50
2018-04-07T08:30:00.294Z,18.33
2018-04-07T08:32:27.734Z,17.10
2018-04-07T08:34:55.939Z,17.50
2018-04-07T08:37:23.389Z,16.57
2018-04-07T08:39:50.843Z,16.57
2018-04-07T08:42:18.283Z,16.47
2018-04-07T08:44:45.719Z,15.50
2018-04-07T08:47:14.792Z,17.23
2018-04-07T08:49:42.226Z,16.43
2018-04-07T08:52:09.675Z,15.40
2018-04-07T08:54:37.225Z,17.33
2018-04-07T08:57:04.671Z,16.27
2018-04-07T08:59:32.114Z,15.30
2018-04-07T09:01:59.558Z,15.67
2018-04-07T09:04:27.761Z,16.17
2018-04-07T09:06:55.213Z,15.77
2018-04-07T09:09:22.649Z,16.00
2018-04-07T09:11:50.862Z,16.00
2018-04-07T09:14:18.304Z,15.23
2018-04-07T09:16:45.746Z,13.90
2018-04-07T09:19:13.182Z,14.00
2018-04-07T09:21:41.386Z,14.33
2018-04-07T09:24:08.830Z,14.53
2018-04-07T09:26:36.280Z,15.20
2018-04-07T09:29:04.486Z,16.00
2018-04-07T09:31:31.964Z,16.63
2018-04-07T09:33:59.366Z,15.10
2018-04-07T09:36:27.573Z,16.27
2018-04-07T09:38:55.010Z,15.90
2018-04-07T09:41:22.457Z,14.80
2018-04-07T09:43:50.093Z,15.10
2018-04-07T09:46:17.542Z,15.60
2018-04-07T09:48:44.982Z,15.27
2018-04-07T09:51:12.435Z,15.83
2018-04-07T09:53:39.882Z,15.33
2018-04-07T09:56:07.323Z,14.70
2018-04-07T09:58:34.749Z,14.30
2018-04-07T10:01:02.198Z,15.60
2018-04-07T10:03:30.420Z,13.33
2018-04-07T10:05:57.855Z,15.33
2018-04-07T10:08:25.301Z,14.33
2018-04-07T10:10:52.729Z,14.37
2018-04-07T10:13:20.169Z,14.30
2018-04-07T10:15:47.613Z,14.33
2018-04-07T10:18:15.053Z,13.37
2018-04-07T10:20:42.494Z,13.53
2018-04-07T10:23:09.944Z,14.13
2018-04-07T10:25:37.386Z,12.70
2018-04-07T10:28:04.834Z,13.40
2018-04-07T10:30:33.033Z,11.97
2018-04-07T10:33:00.514Z,12.50
2018-04-07T10:35:27.957Z,11.93
2018-04-07T10:37:55.406Z,13.47
2018-04-07T10:40:22.844Z,13.07
2018-04-07T10:42:51.053Z,11.40
2018-04-07T10:45:18.498Z,11.40
2018-04-07T10:47:45.947Z,11.80
2018-04-07T10:50:14.199Z,12.60
2018-04-07T10:52:41.710Z,12.90
2018-04-07T10:55:09.078Z,12.07
2018-04-07T10:57:36.530Z,12.37
2018-04-07T11:00:03.990Z,13.33
2018-04-07T11:02:31.430Z,11.23
2018-04-07T11:04:58.878Z,12.50
2018-04-07T11:07:26.319Z,14.30
2018-04-07T11:09:53.762Z,12.00
2018-04-07T11:12:21.206Z,15.77
2018-04-07T11:14:49.425Z,14.73
2018-04-07T11:17:16.912Z,13.20
2018-04-07T11:19:44.314Z,14.30
2018-04-07T11:22:11.761Z,13.70
2018-04-07T11:24:39.205Z,13.27
2018-04-07T11:27:07.406Z,13.70
2018-04-07T11:29:34.845Z,13.03
2018-04-07T11:32:02.296Z,14.20
2018-04-07T11:34:30.507Z,14.00
2018-04-07T11:36:57.954Z,13.80
2018-04-07T11:39:25.429Z,13.50
2018-04-07T11:41:52.834Z,14.20
2018-04-07T11:44:21.051Z,13.90
2018-04-07T11:46:48.486Z,13.67
2018-04-07T11:49:15.934Z,13.10
2018-04-07T11:51:43.376Z,11.80
2018-04-07T11:54:11.591Z,14.60
2018-04-07T11:56:39.021Z,15.20
2018-04-07T11:59:06.470Z,14.93
2018-04-07T12:01:34.698Z,14.03
2018-04-07T12:04:02.644Z,14.93
2018-04-07T12:06:30.076Z,14.23
2018-04-07T12:08:57.527Z,13.60
2018-04-07T12:11:24.981Z,13.80
2018-04-07T12:16:27.906Z,12.77
2018-04-07T12:18:55.365Z,12.60
2018-04-07T12:21:22.793Z,12.67
2018-04-07T12:23:50.237Z,10.80
2018-04-07T12:26:18.438Z,12.67
2018-04-07T12:28:45.884Z,12.20
2018-04-07T12:31:13.314Z,11.67
2018-04-07T12:33:41.527Z,13.33
2018-04-07T12:36:08.966Z,10.90
2018-04-07T12:38:36.421Z,11.57
2018-04-07T12:41:03.856Z,13.07
2018-04-07T12:43:32.066Z,10.83
2018-04-07T12:45:59.509Z,12.50
2018-04-07T12:48:26.951Z,13.33
2018-04-07T12:50:55.163Z,13.60
2018-04-07T12:53:22.601Z,12.20
2018-04-07T12:55:50.054Z,11.87
2018-04-07T12:58:17.495Z,12.70
2018-04-07T13:00:45.709Z,11.23
2018-04-07T13:03:13.145Z,12.70
2018-04-07T13:05:40.599Z,12.13
2018-04-07T13:08:08.041Z,11.20
2018-04-07T13:10:36.245Z,10.17
2018-04-07T13:13:03.696Z,12.17
2018-04-07T13:15:31.130Z,11.77
2018-04-07T13:17:59.330Z,11.77
2018-04-07T13:20:26.784Z,12.60
2018-04-07T13:22:54.218Z,11.53
2018-04-07T13:25:21.667Z,10.63
2018-04-07T13:27:49.873Z,10.83
2018-04-07T13:30:17.339Z,11.30
2018-04-07T13:32:44.775Z,11.33
2018-04-07T13:35:12.222Z,11.13
2018-04-07T13:37:39.663Z,12.50
2018-04-07T13:40:07.874Z,10.30
2018-04-07T13:42:35.319Z,11.47
2018-04-07T13:45:02.763Z,9.93
2018-04-07T13:47:30.197Z,10.97
2018-04-07T13:49:58.418Z,10.60
2018-04-07T13:52:25.862Z,10.80
2018-04-07T13:54:53.306Z,11.80
2018-04-07T13:57:20.754Z,10.40
2018-04-07T13:59:48.968Z,10.77
2018-04-07T14:02:16.406Z,10.80
2018-04-07T14:04:43.863Z,10.07
2018-04-07T14:07:11.306Z,10.90
2018-04-07T14:09:38.748Z,11.20
2018-04-07T14:12:06.958Z,9.50
2018-04-07T14:14:34.394Z,12.23
2018-04-07T14:17:01.860Z,9.90
2018-04-07T14:19:30.042Z,10.23
2018-04-07T14:21:57.486Z,9.30
2018-04-07T14:24:24.930Z,10.80
2018-04-07T14:26:52.381Z,9.13
2018-04-07T14:29:20.586Z,10.13
2018-04-07T14:31:48.043Z,10.93
2018-04-07T14:34:15.483Z,10.60
2018-04-07T14:36:42.936Z,9.40
2018-04-07T14:39:10.383Z,9.80
2018-04-07T14:41:38.588Z,8.40
2018-04-07T14:44:06.021Z,9.07
2018-04-07T14:46:33.471Z,9.47
2018-04-07T14:49:00.917Z,9.13
2018-04-07T14:51:29.119Z,8.57
2018-04-07T14:53:56.555Z,8.90
2018-04-07T14:56:23.997Z,8.57
2018-04-07T14:58:52.198Z,7.90
2018-04-07T15:01:19.640Z,6.50
2018-04-07T15:03:47.842Z,7.40
2018-04-07T15:06:15.326Z,7.43
2018-04-07T15:08:42.762Z,6.77
2018-04-07T15:11:10.205Z,7.20
2018-04-07T15:13:37.629Z,7.43
2018-04-07T15:16:05.839Z,5.67
2018-04-07T15:18:33.282Z,6.87
2018-04-07T15:21:00.751Z,5.87
2018-04-07T15:23:28.197Z,6.70
2018-04-07T15:25:55.625Z,6.53
2018-04-07T15:28:23.846Z,6.97
2018-04-07T15:30:51.282Z,7.70
2018-04-07T15:33:18.736Z,5.73
2018-04-07T15:35:46.166Z,7.33
2018-04-07T15:38:14.370Z,8.37
2018-04-07T15:40:41.807Z,7.07
2018-04-07T15:43:10.018Z,8.23
2018-04-07T15:45:37.460Z,8.90
2018-04-07T15:48:04.910Z,9.30
2018-04-07T15:50:32.331Z,9.10
2018-04-07T15:52:59.773Z,8.53
2018-04-07T15:55:27.212Z,7.77
2018-04-07T15:57:54.650Z,9.67
2018-04-07T16:00:22.091Z,10.03
2018-04-07T16:02:49.529Z,9.10
2018-04-07T16:05:17.743Z,11.40
2018-04-07T16:07:45.187Z,9.90
2018-04-07T16:10:12.626Z,8.80
2018-04-07T16:12:40.083Z,10.70
2018-04-07T16:15:07.533Z,12.63
2018-04-07T16:17:34.984Z,8.77
2018-04-07T16:22:36.496Z,9.90
2018-04-07T16:25:05.242Z,9.00
2018-04-07T16:27:33.450Z,10.27
2018-04-07T16:30:00.936Z,9.50
2018-04-07T16:32:28.362Z,9.23
2018-04-07T16:34:55.809Z,8.57
2018-04-07T16:37:23.254Z,8.50
2018-04-07T16:39:50.692Z,9.17
2018-04-07T16:42:18.121Z,8.80
2018-04-07T16:44:45.574Z,8.00
2018-04-07T16:47:13.026Z,8.17
2018-04-07T16:49:40.457Z,8.47
2018-04-07T16:52:07.892Z,7.40
2018-04-07T16:54:35.334Z,9.00
2018-04-07T16:57:02.771Z,6.70
2018-04-07T16:59:30.198Z,6.93
2018-04-07T17:01:57.647Z,7.47
2018-04-07T17:04:25.089Z,6.93
2018-04-07T17:06:52.528Z,9.30
2018-04-07T17:09:19.964Z,6.80
2018-04-07T17:11:53.067Z,7.97
2018-04-07T17:14:20.510Z,8.57
2018-04-07T17:16:48.728Z,8.30
2018-04-07T17:19:16.177Z,8.20
2018-04-07T17:21:43.626Z,8.30
2018-04-07T17:24:11.052Z,9.30
2018-04-07T17:26:39.263Z,9.37
2018-04-07T17:29:06.715Z,9.60
2018-04-07T17:31:34.157Z,9.83
2018-04-07T17:34:01.606Z,11.60
2018-04-07T17:36:29.041Z,11.80
2018-04-07T17:38:57.265Z,13.47
2018-04-07T17:41:24.703Z,10.87
2018-04-07T17:43:52.155Z,10.83
2018-04-07T17:46:19.990Z,10.13
2018-04-07T17:48:47.437Z,9.50
2018-04-07T17:51:14.875Z,9.63
2018-04-07T17:53:42.342Z,9.30
2018-04-07T17:56:09.795Z,9.73
2018-04-07T17:58:37.241Z,9.80
2018-04-07T18:01:04.694Z,9.63
2018-04-07T18:03:32.187Z,9.30
2018-04-07T18:05:59.633Z,10.30
2018-04-07T18:08:27.075Z,9.77
2018-04-07T18:10:54.522Z,9.20
2018-04-07T18:13:21.983Z,9.70
2018-04-07T18:15:49.450Z,13.53
2018-04-07T18:18:16.899Z,14.10
2018-04-07T18:20:44.360Z,13.63
2018-04-07T18:23:11.818Z,10.80
2018-04-07T18:25:39.303Z,11.47
2018-04-07T18:28:06.743Z,9.60
2018-04-07T18:30:34.205Z,10.40
2018-04-07T18:33:01.687Z,10.17
2018-04-07T18:35:29.150Z,11.20
2018-04-07T18:37:56.599Z,10.73
2018-04-07T18:40:24.828Z,10.77
2018-04-07T18:42:52.279Z,10.53
2018-04-07T18:45:19.738Z,10.57
2018-04-07T18:47:47.170Z,11.30
2018-04-07T18:50:14.624Z,14.77
2018-04-07T18:52:42.066Z,17.50
2018-04-07T18:55:09.544Z,15.33
2018-04-07T18:57:36.995Z,15.07
2018-04-07T19:00:04.453Z,13.77
2018-04-07T19:02:31.890Z,12.20
2018-04-07T19:04:59.362Z,12.87
2018-04-07T19:07:26.801Z,11.73
2018-04-07T19:09:54.259Z,10.90
2018-04-07T19:12:22.491Z,12.07
2018-04-07T19:14:49.950Z,11.63
2018-04-07T19:17:17.411Z,12.13
2018-04-07T19:19:44.863Z,12.13
2018-04-07T19:22:12.322Z,11.30
2018-04-07T19:24:39.791Z,11.20
2018-04-07T19:27:07.259Z,11.57
2018-04-07T19:29:35.470Z,11.60
2018-04-07T19:32:02.925Z,11.20
2018-04-07T19:34:30.367Z,12.47
2018-04-07T19:36:57.824Z,12.30
2018-04-07T19:39:25.281Z,12.10
2018-04-07T19:41:52.718Z,11.50
2018-04-07T19:44:20.175Z,11.97
2018-04-07T19:46:47.658Z,12.53
2018-04-07T19:49:15.094Z,12.80
2018-04-07T19:51:42.549Z,12.40
2018-04-07T19:54:09.999Z,12.50
2018-04-07T19:56:38.226Z,12.47
2018-04-07T19:59:05.680Z,12.80
2018-04-07T20:01:33.158Z,13.07
2018-04-07T20:04:00.594Z,13.30
2018-04-07T20:06:28.058Z,14.10
2018-04-07T20:08:55.519Z,12.97
2018-04-07T20:11:22.967Z,13.10
2018-04-07T20:13:50.421Z,13.53
2018-04-07T20:16:17.884Z,13.83
2018-04-07T20:18:45.329Z,13.47
2018-04-07T20:21:12.788Z,13.93
2018-04-07T20:23:40.241Z,13.70
2018-04-07T20:26:07.684Z,12.83
2018-04-07T20:28:35.142Z,13.90
2018-04-07T20:31:02.582Z,14.20
2018-04-07T20:33:30.051Z,14.40
2018-04-07T20:35:57.493Z,12.50
2018-04-07T20:38:24.958Z,14.50
2018-04-07T20:40:55.350Z,14.20
2018-04-07T20:43:23.566Z,15.30
2018-04-07T20:45:51.009Z,13.43
2018-04-07T20:48:18.450Z,14.30
2018-04-07T20:50:45.909Z,13.73
2018-04-07T20:53:13.360Z,13.70
2018-04-07T20:55:41.565Z,13.97
2018-04-07T20:58:09.024Z,14.53
2018-04-07T21:00:36.470Z,14.10
2018-04-07T21:03:03.930Z,14.00
2018-04-07T21:05:31.375Z,14.03
2018-04-07T21:07:58.827Z,15.23
2018-04-07T21:10:26.286Z,13.83
2018-04-07T21:12:53.739Z,13.57
2018-04-07T21:15:21.199Z,14.57
2018-04-07T21:17:48.643Z,14.20
2018-04-07T21:20:16.101Z,14.80
2018-04-07T21:22:43.563Z,14.00
2018-04-07T21:25:11.012Z,13.37
2018-04-07T21:27:38.456Z,13.90
2018-04-07T21:30:06.678Z,12.83
2018-04-07T21:32:34.126Z,12.57
2018-04-07T21:35:01.583Z,12.13
2018-04-07T21:37:29.042Z,11.67
2018-04-07T21:39:56.494Z,12.00
2018-04-07T21:42:23.936Z,11.50
2018-04-07T21:44:51.392Z,11.90
2018-04-07T21:47:18.837Z,12.53
2018-04-07T21:49:46.290Z,13.10
2018-04-07T21:52:13.781Z,13.17
2018-04-07T21:54:41.218Z,11.40
2018-04-07T21:57:08.662Z,12.57
2018-04-07T21:59:36.130Z,11.97
2018-04-07T22:02:04.326Z,11.63
2018-04-07T22:04:31.782Z,13.13
2018-04-07T22:06:59.231Z,11.70
2018-04-07T22:09:26.709Z,12.20
2018-04-07T22:11:55.131Z,12.23
2018-04-07T22:14:23.351Z,12.70
2018-04-07T22:16:50.798Z,12.97
2018-04-07T22:19:18.287Z,11.20
2018-04-07T22:21:45.715Z,10.60
2018-04-07T22:24:13.163Z,12.33
2018-04-07T22:26:40.604Z,11.57
2018-04-07T22:29:08.065Z,13.23
2018-04-07T22:31:35.506Z,11.70
2018-04-07T22:34:02.975Z,11.13
2018-04-07T22:36:30.416Z,11.53
2018-04-07T22:38:58.625Z,12.20
2018-04-07T22:41:26.078Z,12.87
2018-04-07T22:43:53.534Z,11.67
2018-04-07T22:46:21.671Z,11.73
2018-04-07T22:48:49.887Z,11.70
2018-04-07T22:51:17.372Z,12.27
2018-04-07T22:53:44.796Z,11.67
2018-04-07T22:56:12.242Z,12.00
2018-04-07T22:58:39.697Z,10.50
2018-04-07T23:01:07.158Z,10.87
2018-04-07T23:03:34.614Z,11.10
2018-04-07T23:06:02.061Z,11.40
2018-04-07T23:08:29.502Z,10.70
2018-04-07T23:10:56.950Z,11.53
2018-04-07T23:13:25.162Z,10.90
2018-04-07T23:15:52.618Z,10.83
2018-04-07T23:18:20.054Z,11.70
2018-04-07T23:20:47.505Z,10.93
2018-04-07T23:23:15.704Z,10.50
2018-04-07T23:25:43.153Z,11.20
2018-04-07T23:28:10.602Z,11.80
2018-04-07T23:30:38.051Z,10.30
2018-04-07T23:33:05.498Z,12.03
2018-04-07T23:35:33.739Z,11.10
2018-04-07T23:38:01.182Z,11.30
2018-04-07T23:40:28.617Z,11.50
2018-04-07T23:42:56.070Z,12.43
2018-04-07T23:45:23.514Z,11.43
2018-04-07T23:47:50.970Z,12.27
2018-04-07T23:50:18.411Z,11.40
2018-04-07T23:52:46.650Z,12.53
2018-04-07T23:55:14.106Z,13.33
2018-04-07T23:57:41.562Z,12.77
